Links Sitemap Venhuizerweer voor mobiel

AMSTERDAM SCHIPHOL:
Amsterdam Airport Schiphol, Netherlands (EHAM) 52-18N 004-46E -2M
May 27, 2018 - 12:55 AM EDT / 2018.05.27 0455 UTC
Wind: from the ENE (060 degrees) at 14 MPH (12 KT):0
Visibility: greater than 7 mile(s):0
Temperature: 66 F (19 C)
Dew Point: 55 F (13 C)
Relative Humidity: 68%
Pressure (altimeter): 30.09 in. Hg (1019 hPa)
ob: EHAM 270455Z 06012KT CAVOK 19/13 Q1019 NOSIG
cycle: 5
DEELEN:
Deelen, Netherlands (EHDL) 52-04N 005-53E 52M
May 27, 2018 - 12:55 AM EDT / 2018.05.27 0455 UTC
Wind: from the ENE (070 degrees) at 7 MPH (6 KT) (direction variable):0
Visibility: greater than 7 mile(s):0
Sky conditions: mostly cloudy
Temperature: 64 F (18 C)
Dew Point: 53 F (12 C)
Relative Humidity: 67%
Pressure (altimeter): 30.09 in. Hg (1019 hPa)
ob: EHDL 270455Z AUTO 07006KT 360V120 9999 BKN062 BKN071 BKN084 18/12 Q1019 BLU
cycle: 5
DE KOOY:
De Kooy, Netherlands (EHKD) 52-55N 004-47E 14M
May 27, 2018 - 12:55 AM EDT / 2018.05.27 0455 UTC
Wind: from the E (080 degrees) at 14 MPH (12 KT) (direction variable):0
Visibility: greater than 7 mile(s):0
Temperature: 64 F (18 C)
Dew Point: 55 F (13 C)
Relative Humidity: 72%
Pressure (altimeter): 30.12 in. Hg (1020 hPa)
ob: EHKD 270455Z AUTO 08012KT 050V110 9999 NCD 18/13 Q1020 BLU 06014KT CAVOK
cycle: 5
EELDE:
Groningen Airport Eelde, Netherlands (EHGG) 53-08N 006-35E 4M
May 27, 2018 - 12:55 AM EDT / 2018.05.27 0455 UTC
Wind: from the ENE (060 degrees) at 7 MPH (6 KT) (direction variable):0
Visibility: greater than 7 mile(s):0
Temperature: 60 F (16 C)
Dew Point: 53 F (12 C)
Relative Humidity: 77%
Pressure (altimeter): 30.15 in. Hg (1021 hPa)
ob: EHGG 270455Z AUTO 06006KT 030V090 9999 NCD 16/12 Q1021 NOSIG
cycle: 5
EINDHOVEN:
Eindhoven, Netherlands (EHEH) 51-27N 005-25E 28M
May 27, 2018 - 12:55 AM EDT / 2018.05.27 0455 UTC
Wind: from the ENE (060 degrees) at 8 MPH (7 KT):0
Visibility: greater than 7 mile(s):0
Sky conditions: overcast
Temperature: 66 F (19 C)
Dew Point: 53 F (12 C)
Relative Humidity: 63%
Pressure (altimeter): 30.06 in. Hg (1018 hPa)
ob: EHEH 270455Z AUTO 06007KT 9999 BKN230 OVC310 19/12 Q1018 BLU 07007KT CAVOK
cycle: 5
GILZE-RIJEN:
Gilze-Rijen, Netherlands (EHGR) 51-34N 004-56E 24M
May 27, 2018 - 12:55 AM EDT / 2018.05.27 0455 UTC
Wind: from the E (080 degrees) at 7 MPH (6 KT) (direction variable):0
Visibility: greater than 7 mile(s):0
Sky conditions: mostly cloudy
Temperature: 66 F (19 C)
Dew Point: 53 F (12 C)
Relative Humidity: 63%
Pressure (altimeter): 30.06 in. Hg (1018 hPa)
ob: EHGR 270455Z AUTO 08006KT 050V130 9999 BKN190 19/12 Q1018 BLU
cycle: 5
LEEUWARDEN:
Leeuwarden, Netherlands (EHLW) 53-13N 005-46E 11M
May 27, 2018 - 12:55 AM EDT / 2018.05.27 0455 UTC
Wind: from the ENE (070 degrees) at 9 MPH (8 KT) (direction variable):0
Visibility: greater than 7 mile(s):0
Temperature: 60 F (16 C)
Dew Point: 53 F (12 C)
Relative Humidity: 77%
Pressure (altimeter): 30.15 in. Hg (1021 hPa)
ob: EHLW 270455Z AUTO 07008KT 010V120 9999 NCD 16/12 Q1021 BLU
cycle: 5
MAASTRICHT:
Maastricht Airport Zuid Limburg, Netherlands (EHBK) 50-55N 005-47E 116M
May 27, 2018 - 12:55 AM EDT / 2018.05.27 0455 UTC
Wind: from the ENE (060 degrees) at 5 MPH (4 KT) (direction variable):0
Visibility: greater than 7 mile(s):0
Temperature: 66 F (19 C)
Dew Point: 59 F (15 C)
Relative Humidity: 77%
Pressure (altimeter): 30.03 in. Hg (1017 hPa)
ob: EHBK 270455Z AUTO 06004KT 030V100 9999 NSC 19/15 Q1017 NOSIG
cycle: 5
ROTTERDAM ZESTIENHOVEN:
Rotterdam Airport Zestienhoven, Netherlands (EHRD) 51-57N 004-27E -4M
May 27, 2018 - 12:55 AM EDT / 2018.05.27 0455 UTC
Wind: from the E (080 degrees) at 10 MPH (9 KT) (direction variable):0
Visibility: greater than 7 mile(s):0
Temperature: 66 F (19 C)
Dew Point: 53 F (12 C)
Relative Humidity: 63%
Pressure (altimeter): 30.06 in. Hg (1018 hPa)
ob: EHRD 270455Z AUTO 08009KT 050V110 9999 NSC 19/12 Q1018 NOSIG
cycle: 5
SOESTERBERG:
Soesterberg, Netherlands (EHSB) 52-08N 005-17E 25M
Nov 20, 2008 - 04:25 AM EST / 2008.11.20 0925 UTC
Wind: from the W (280 degrees) at 16 MPH (14 KT):0
Visibility: greater than 7 mile(s):0
Temperature: 51 F (11 C)
Dew Point: 48 F (9 C)
Relative Humidity: 87%
Pressure (altimeter): 29.83 in. Hg (1010 hPa)
ob: EHSB 200925Z AUTO 28014KT 9999 // 11/09 Q1010
cycle: 9
TWENTE:
Twenthe, Netherlands (EHTW) 52-16N 006-54E 57M
Apr 07, 2008 - 08:25 AM EDT / 2008.04.07 1225 UTC
Wind: from the N (010 degrees) at 7 MPH (6 KT):0
Sky conditions: mostly cloudy
Temperature: 46 F (8 C)
Dew Point: 24 F (-4 C)
Relative Humidity: 42%
Pressure (altimeter): 29.59 in. Hg (1002 hPa)
ob: EHTW 071225Z AUTO 01006KT //// // BKN200/// 08/M04 Q1002 RE//
cycle: 12
VALKENBURG:
Valkenburg, Netherlands (EHVB) 52-11N 004-25E 2M
Apr 01, 2010 - 03:55 AM EDT / 2010.04.01 0755 UTC
Wind: from the WSW (250 degrees) at 20 MPH (17 KT):0
Sky conditions: mostly cloudy
Temperature: 41 F (5 C)
Dew Point: 33 F (1 C)
Relative Humidity: 75%
Pressure (altimeter): 29.62 in. Hg (1003 hPa)
ob: EHVB 010755Z AUTO 25017KT 9999NDV FEW021/// BKN037/// 05/01 Q1003 BLU
cycle: 8
VLIELAND:
Vlieland, Netherlands (EHVL) 53-15N 004-55E 12M
May 27, 2018 - 12:55 AM EDT / 2018.05.27 0455 UTC
Wind: from the E (080 degrees) at 17 MPH (15 KT):0
Visibility: greater than 7 mile(s):0
Temperature: 62 F (17 C)
Dew Point: 55 F (13 C)
Relative Humidity: 77%
Pressure (altimeter): 30.12 in. Hg (1020 hPa)
ob: EHVL 270455Z AUTO 08015KT 9999 NCD 17/13 Q1020 BLU
cycle: 5
VOLKEL:
Volkel, Netherlands (EHVK) 51-39N 005-42E 21M
May 27, 2018 - 12:55 AM EDT / 2018.05.27 0455 UTC
Wind: from the ENE (070 degrees) at 9 MPH (8 KT) (direction variable):0
Visibility: greater than 7 mile(s):0
Sky conditions: overcast
Temperature: 66 F (19 C)
Dew Point: 53 F (12 C)
Relative Humidity: 63%
Pressure (altimeter): 30.06 in. Hg (1018 hPa)
ob: EHVK 270455Z AUTO 07008KT 030V110 9999 OVC100 19/12 Q1018 BLU
cycle: 5
WOENSDRECHT:
Woensdrecht, Netherlands (EHWO) 51-27N 004-20E 17M
May 27, 2018 - 12:55 AM EDT / 2018.05.27 0455 UTC
Wind: from the E (080 degrees) at 8 MPH (7 KT):0
Visibility: greater than 7 mile(s):0
Sky conditions: overcast
Temperature: 66 F (19 C)
Dew Point: 55 F (13 C)
Relative Humidity: 68%
Pressure (altimeter): 30.03 in. Hg (1017 hPa)
ob: EHWO 270455Z AUTO 08007KT 9999 OVC130 19/13 Q1017 BLU
cycle: 5
Copyright © 2005 - 2018 Venhuizerweer - Alle Rechten Voorbehouden


54.166.245.10